Callao, Peru
Current Conditions -  °F | °C
As of 9:00 PM on Friday 21 Nov 2014 (Local Time) from SPIM Reporting Station
Overcast Overcast  
Wind Chill: 66°   Ceiling: 2400
Heat Index: 66°   Visibility: 6mi
Dew Point: 63°   Wind: 7mph
Humidity: 88%   Direction: 180°S
Pressure: 29.97"   Gusts: NA
Location:  12.07°S, 77.15°W
Report Text: SPIM 220200Z 18006KT 9999 OVC024 19/17 Q1015 NOSIG RMK PP000
Loading
Personal Weather Stations






























Interactive Weather Map New forecast layout! Learn more

10-Day Weather Forecast

Advertisements
Track Severe Weather on mobile